Time;durP1;ratioP1;P1;durP2;ratioP2;P2;SDS_P1;SDS_P2;PMS_P1;PMS_P2;Temp;Humidity;BMP_temperature;BMP_pressure;BME280_temperature;BME280_humidity;BME280_pressure;Samples;Min_cycle;Max_cycle;Signal;HPM_P1;HPM_P2
2023/08/23 00:00:54;;;;;;;8.57;5.93;;;;;;;;;;5028368;28;20617;-68
2023/08/23 00:03:19;;;;;;;6.82;5.70;;;;;;;;;;5027065;28;20186;-68
2023/08/23 00:05:45;;;;;;;9.38;5.40;;;;;;;;;;5022407;28;20581;-67
2023/08/23 00:08:10;;;;;;;12.02;6.00;;;;;;;;;;5022610;28;20194;-68
2023/08/23 00:10:36;;;;;;;9.07;5.43;;;;;;;;;;5028959;28;20186;-68
2023/08/23 00:13:01;;;;;;;7.82;4.97;;;;;;;;;;5029444;28;20198;-68
2023/08/23 00:15:26;;;;;;;9.02;5.85;;;;;;;;;;5029550;28;20542;-68
2023/08/23 00:17:52;;;;;;;8.73;5.68;;;;;;;;;;5028874;28;20218;-68
2023/08/23 00:20:17;;;;;;;10.90;6.22;;;;;;;;;;5028507;28;20273;-68
2023/08/23 00:22:42;;;;;;;8.10;5.50;;;;;;;;;;5029546;28;20194;-68
2023/08/23 00:25:08;;;;;;;7.82;5.22;;;;;;;;;;5029839;28;20653;-67
2023/08/23 00:27:33;;;;;;;8.10;5.65;;;;;;;;;;5031653;28;20194;-68
2023/08/23 00:29:59;;;;;;;12.85;5.47;;;;;;;;;;5031129;28;20186;-68
2023/08/23 00:32:24;;;;;;;8.38;6.05;;;;;;;;;;5033308;28;20190;-67
2023/08/23 00:34:49;;;;;;;9.40;6.60;;;;;;;;;;5032844;28;20205;-67
2023/08/23 00:37:15;;;;;;;9.63;6.45;;;;;;;;;;5032172;28;20300;-68
2023/08/23 00:39:40;;;;;;;10.45;6.80;;;;;;;;;;5030039;28;20273;-68
2023/08/23 00:42:06;;;;;;;10.27;6.05;;;;;;;;;;5029340;28;20256;-67
2023/08/23 00:44:31;;;;;;;8.60;5.90;;;;;;;;;;5027719;28;20695;-68
2023/08/23 00:46:56;;;;;;;9.80;5.10;;;;;;;;;;5029737;28;20190;-67
2023/08/23 00:49:22;;;;;;;8.02;5.43;;;;;;;;;;5036228;28;20556;-67
2023/08/23 00:51:49;;;;;;;8.60;6.43;;;;;;;;;;5034245;28;20646;-67
2023/08/23 00:54:14;;;;;;;6.85;5.82;;;;;;;;;;5032823;28;20314;-67
2023/08/23 00:56:40;;;;;;;12.25;5.65;;;;;;;;;;5023757;28;20318;-67
2023/08/23 00:59:09;;;;;;;8.25;6.07;;;;;;;;;;5032452;28;20218;-67
2023/08/23 01:01:35;;;;;;;9.02;6.13;;;;;;;;;;5023400;28;20276;-67
2023/08/23 01:04:00;;;;;;;10.40;6.43;;;;;;;;;;5026715;28;20198;-67
2023/08/23 01:06:46;;;;;;;8.23;6.40;;;;;;;;;;5032031;28;20276;-67
2023/08/23 01:09:33;;;;;;;9.18;7.03;;;;;;;;;;5032587;28;20332;-67
2023/08/23 01:12:44;;;;;;;9.07;6.63;;;;;;;;;;5032565;28;20189;-67
2023/08/23 01:15:14;;;;;;;10.27;6.47;;;;;;;;;;4978287;28;20293;-67
2023/08/23 01:17:42;;;;;;;11.05;6.93;;;;;;;;;;5026504;28;20268;-68
2023/08/23 01:20:13;;;;;;;13.80;7.35;;;;;;;;;;5028347;28;20190;-68
2023/08/23 01:22:44;;;;;;;11.02;7.43;;;;;;;;;;5025384;28;20265;-67
2023/08/23 01:25:09;;;;;;;25.75;7.35;;;;;;;;;;5031966;28;20293;-68
2023/08/23 01:27:35;;;;;;;9.82;7.03;;;;;;;;;;5032323;28;20619;-67
2023/08/23 01:30:00;;;;;;;9.45;7.18;;;;;;;;;;5027108;28;20590;-68
2023/08/23 01:32:37;;;;;;;11.18;7.78;;;;;;;;;;5033454;28;20434;-67
2023/08/23 01:35:11;;;;;;;11.18;7.90;;;;;;;;;;5031926;28;20186;-67
2023/08/23 01:37:39;;;;;;;10.98;7.10;;;;;;;;;;5031792;28;20210;-67
2023/08/23 01:40:09;;;;;;;10.75;6.68;;;;;;;;;;5029688;28;20183;-67
2023/08/23 01:42:36;;;;;;;10.30;6.65;;;;;;;;;;5031275;28;20193;-67
2023/08/23 01:45:02;;;;;;;8.38;6.18;;;;;;;;;;5029113;28;20724;-67
2023/08/23 01:47:28;;;;;;;9.23;6.57;;;;;;;;;;5028980;28;20236;-67
2023/08/23 01:49:53;;;;;;;12.18;6.68;;;;;;;;;;5032379;28;20576;-68
2023/08/23 01:52:19;;;;;;;9.77;6.70;;;;;;;;;;5030409;28;20194;-68
2023/08/23 01:54:44;;;;;;;9.75;7.20;;;;;;;;;;5031874;28;20285;-67
2023/08/23 01:57:09;;;;;;;9.93;6.93;;;;;;;;;;5013955;28;20201;-68
2023/08/23 01:59:37;;;;;;;9.20;7.72;;;;;;;;;;5021516;28;20712;-68
2023/08/23 02:02:02;;;;;;;12.45;8.30;;;;;;;;;;5032113;28;20230;-69
2023/08/23 02:04:28;;;;;;;10.95;7.82;;;;;;;;;;5030884;28;20218;-68
2023/08/23 02:06:53;;;;;;;11.52;6.85;;;;;;;;;;5031440;28;20613;-68
2023/08/23 02:09:18;;;;;;;15.27;7.90;;;;;;;;;;5030476;28;20214;-67
2023/08/23 02:11:44;;;;;;;12.52;7.68;;;;;;;;;;5030063;28;20186;-68
2023/08/23 02:14:09;;;;;;;9.15;7.53;;;;;;;;;;5031430;28;20194;-67
2023/08/23 02:16:35;;;;;;;12.25;7.97;;;;;;;;;;5029720;28;20256;-67
2023/08/23 02:19:00;;;;;;;9.40;7.45;;;;;;;;;;5029894;28;20213;-68
2023/08/23 02:21:25;;;;;;;11.55;7.43;;;;;;;;;;5028502;28;20206;-67
2023/08/23 02:23:51;;;;;;;12.77;8.50;;;;;;;;;;5031707;28;20521;-68
2023/08/23 02:26:16;;;;;;;11.50;7.55;;;;;;;;;;5031820;28;20625;-67
2023/08/23 02:28:42;;;;;;;10.60;7.15;;;;;;;;;;5032135;28;20261;-67
2023/08/23 02:31:07;;;;;;;9.73;6.80;;;;;;;;;;5025186;28;20662;-67
2023/08/23 02:33:32;;;;;;;10.00;6.90;;;;;;;;;;5030213;28;20504;-68
2023/08/23 02:35:58;;;;;;;10.00;6.25;;;;;;;;;;5023875;28;20195;-68
2023/08/23 02:38:23;;;;;;;11.68;7.22;;;;;;;;;;5027631;28;20209;-67
2023/08/23 02:40:49;;;;;;;9.52;6.88;;;;;;;;;;5034445;28;20202;-67
2023/08/23 02:43:14;;;;;;;9.95;6.70;;;;;;;;;;5029648;28;20230;-67
2023/08/23 02:45:40;;;;;;;10.20;6.72;;;;;;;;;;5029097;28;20552;-67
2023/08/23 02:48:09;;;;;;;9.75;6.78;;;;;;;;;;5030464;28;20302;-68
2023/08/23 02:50:34;;;;;;;10.23;7.55;;;;;;;;;;5029879;28;20186;-67
2023/08/23 02:52:59;;;;;;;10.07;7.30;;;;;;;;;;5030489;28;20243;-67
2023/08/23 02:55:25;;;;;;;10.55;6.35;;;;;;;;;;5018035;28;20763;-68
2023/08/23 02:57:50;;;;;;;10.38;6.45;;;;;;;;;;5028408;28;20209;-68
2023/08/23 03:00:16;;;;;;;11.68;6.45;;;;;;;;;;5028606;28;20273;-68
2023/08/23 03:02:41;;;;;;;7.93;5.90;;;;;;;;;;5027985;28;20481;-68
2023/08/23 03:05:07;;;;;;;10.45;6.05;;;;;;;;;;5020194;28;20634;-68
2023/08/23 03:07:33;;;;;;;9.75;6.45;;;;;;;;;;5029774;28;20221;-68
2023/08/23 03:09:59;;;;;;;7.50;5.95;;;;;;;;;;5030927;28;20186;-68
2023/08/23 03:12:24;;;;;;;11.30;6.20;;;;;;;;;;5026698;28;20217;-68
2023/08/23 03:14:49;;;;;;;9.60;6.43;;;;;;;;;;5030133;28;20184;-67
2023/08/23 03:17:15;;;;;;;11.25;6.60;;;;;;;;;;5024391;28;20257;-67
2023/08/23 03:19:40;;;;;;;9.75;6.38;;;;;;;;;;5017520;28;20187;-67
2023/08/23 03:22:05;;;;;;;9.50;6.40;;;;;;;;;;5023207;28;20214;-68
2023/08/23 03:24:31;;;;;;;9.05;7.30;;;;;;;;;;5029675;28;20217;-68
2023/08/23 03:26:57;;;;;;;9.40;6.70;;;;;;;;;;5029009;28;20296;-68
2023/08/23 03:29:22;;;;;;;8.77;6.03;;;;;;;;;;5029659;28;20242;-68
2023/08/23 03:31:48;;;;;;;7.10;6.35;;;;;;;;;;5024202;28;20221;-67
2023/08/23 03:34:13;;;;;;;9.50;6.88;;;;;;;;;;5020017;28;20529;-67
2023/08/23 03:36:38;;;;;;;13.25;7.30;;;;;;;;;;5032109;28;20274;-68
2023/08/23 03:39:04;;;;;;;12.68;7.13;;;;;;;;;;5028682;28;20213;-67
2023/08/23 03:41:29;;;;;;;12.00;6.90;;;;;;;;;;5022075;28;20286;-67
2023/08/23 03:43:54;;;;;;;13.68;7.40;;;;;;;;;;5025927;28;20792;-67
2023/08/23 03:46:24;;;;;;;11.93;7.93;;;;;;;;;;5022302;28;20202;-67
2023/08/23 03:48:49;;;;;;;11.02;7.30;;;;;;;;;;5025109;28;20182;-67
2023/08/23 03:51:14;;;;;;;9.73;7.78;;;;;;;;;;5028019;28;20186;-67
2023/08/23 03:53:40;;;;;;;9.68;6.78;;;;;;;;;;5030862;28;20244;-67
2023/08/23 03:56:07;;;;;;;8.73;6.38;;;;;;;;;;5025588;28;20270;-67
2023/08/23 03:58:32;;;;;;;8.20;6.90;;;;;;;;;;5020840;28;20218;-68
2023/08/23 04:00:58;;;;;;;8.68;7.05;;;;;;;;;;5015025;28;20557;-67
2023/08/23 04:03:23;;;;;;;11.60;6.75;;;;;;;;;;5032786;28;20224;-67
2023/08/23 04:05:48;;;;;;;9.02;7.05;;;;;;;;;;5032634;28;20252;-67
2023/08/23 04:08:14;;;;;;;10.70;7.35;;;;;;;;;;5032794;28;20679;-67
2023/08/23 04:10:44;;;;;;;10.10;7.68;;;;;;;;;;5033845;28;20276;-67
2023/08/23 04:13:10;;;;;;;10.57;6.85;;;;;;;;;;5032683;28;20240;-67
2023/08/23 04:15:36;;;;;;;9.82;7.28;;;;;;;;;;5033755;28;20194;-68
2023/08/23 04:18:01;;;;;;;10.45;6.97;;;;;;;;;;5028786;28;20321;-67
2023/08/23 04:20:27;;;;;;;14.10;6.63;;;;;;;;;;5023159;28;20637;-67
2023/08/23 04:22:53;;;;;;;9.73;6.15;;;;;;;;;;5030625;28;20193;-67
2023/08/23 04:25:20;;;;;;;6.82;6.13;;;;;;;;;;5029531;28;20651;-67
2023/08/23 04:27:45;;;;;;;6.40;5.80;;;;;;;;;;5034639;28;20248;-67
2023/08/23 04:30:11;;;;;;;8.30;5.93;;;;;;;;;;5026063;28;20193;-67
2023/08/23 04:32:36;;;;;;;6.72;6.05;;;;;;;;;;5040100;28;20197;-67
2023/08/23 04:35:02;;;;;;;7.32;6.43;;;;;;;;;;5036884;28;20204;-68
2023/08/23 04:37:27;;;;;;;10.88;7.00;;;;;;;;;;5019960;28;20214;-68
2023/08/23 04:39:52;;;;;;;8.25;7.40;;;;;;;;;;5028921;28;20719;-67
2023/08/23 04:42:18;;;;;;;9.23;6.93;;;;;;;;;;5032526;28;20281;-69
2023/08/23 04:44:43;;;;;;;8.98;6.68;;;;;;;;;;5032032;28;20248;-68
2023/08/23 04:47:08;;;;;;;7.38;6.32;;;;;;;;;;5018612;28;20247;-67
2023/08/23 04:49:34;;;;;;;9.90;6.47;;;;;;;;;;5033897;28;20189;-67
2023/08/23 04:51:59;;;;;;;7.32;6.47;;;;;;;;;;5024169;28;20219;-67
2023/08/23 04:54:25;;;;;;;7.20;6.22;;;;;;;;;;5032327;28;20193;-67
2023/08/23 04:56:50;;;;;;;8.77;6.68;;;;;;;;;;5025505;28;20195;-67
2023/08/23 04:59:16;;;;;;;8.65;6.78;;;;;;;;;;5030056;28;20254;-67
2023/08/23 05:01:41;;;;;;;9.10;6.85;;;;;;;;;;5031698;28;20182;-67
2023/08/23 05:04:07;;;;;;;7.30;6.57;;;;;;;;;;5031531;28;20549;-67
2023/08/23 05:06:34;;;;;;;7.95;6.88;;;;;;;;;;5025383;28;20191;-68
2023/08/23 05:08:59;;;;;;;8.50;6.05;;;;;;;;;;5026187;28;20182;-67
2023/08/23 05:11:24;;;;;;;8.38;6.93;;;;;;;;;;5032312;28;20213;-67
2023/08/23 05:13:50;;;;;;;6.93;6.25;;;;;;;;;;5031644;28;20272;-68
2023/08/23 05:16:15;;;;;;;7.40;6.50;;;;;;;;;;5030535;28;20914;-67
2023/08/23 05:18:40;;;;;;;7.70;6.90;;;;;;;;;;5021234;28;20220;-68
2023/08/23 05:21:08;;;;;;;8.75;6.47;;;;;;;;;;5032466;28;20201;-68
2023/08/23 05:23:33;;;;;;;12.32;8.13;;;;;;;;;;5022145;28;20197;-68
2023/08/23 05:25:59;;;;;;;10.82;7.82;;;;;;;;;;5019793;28;20190;-67
2023/08/23 05:28:25;;;;;;;10.45;8.60;;;;;;;;;;5030913;28;20191;-68
2023/08/23 05:30:50;;;;;;;9.95;8.05;;;;;;;;;;5050875;28;20186;-68
2023/08/23 05:33:16;;;;;;;10.75;7.97;;;;;;;;;;5033853;28;20293;-68
2023/08/23 05:35:43;;;;;;;10.60;7.50;;;;;;;;;;5031296;28;20590;-67
2023/08/23 05:38:09;;;;;;;9.82;7.93;;;;;;;;;;5028618;28;20245;-68
2023/08/23 05:40:35;;;;;;;12.32;8.82;;;;;;;;;;5031473;28;20174;-67
2023/08/23 05:43:01;;;;;;;9.77;8.60;;;;;;;;;;5028995;28;20203;-67
2023/08/23 05:45:26;;;;;;;10.63;8.07;;;;;;;;;;5025574;28;20225;-67
2023/08/23 05:47:56;;;;;;;12.63;8.63;;;;;;;;;;5031849;28;20186;-68
2023/08/23 05:50:22;;;;;;;12.82;9.63;;;;;;;;;;5031606;28;20190;-67
2023/08/23 05:52:47;;;;;;;13.05;9.23;;;;;;;;;;5018243;28;20190;-67
2023/08/23 05:55:13;;;;;;;10.80;9.02;;;;;;;;;;5031854;28;20196;-67
2023/08/23 05:57:39;;;;;;;12.65;9.43;;;;;;;;;;5024315;28;20554;-68
2023/08/23 06:00:05;;;;;;;11.23;8.65;;;;;;;;;;5030522;28;20533;-68
2023/08/23 06:02:31;;;;;;;13.48;10.27;;;;;;;;;;5028745;28;20502;-68
2023/08/23 06:04:58;;;;;;;12.88;10.38;;;;;;;;;;5020220;28;20291;-68
2023/08/23 06:07:23;;;;;;;14.55;10.25;;;;;;;;;;5029899;28;20195;-68
2023/08/23 06:09:48;;;;;;;16.30;11.02;;;;;;;;;;5031461;28;20178;-68
2023/08/23 06:12:14;;;;;;;14.90;11.63;;;;;;;;;;5025351;28;20245;-68
2023/08/23 06:14:39;;;;;;;13.32;11.93;;;;;;;;;;5026097;28;20679;-68
2023/08/23 06:17:06;;;;;;;17.35;11.82;;;;;;;;;;5026666;28;20221;-68
2023/08/23 06:19:32;;;;;;;17.77;11.75;;;;;;;;;;5026818;28;20186;-67
2023/08/23 06:21:57;;;;;;;23.02;15.82;;;;;;;;;;5030555;28;20546;-68
2023/08/23 06:24:22;;;;;;;21.63;14.43;;;;;;;;;;5030755;28;20259;-68
2023/08/23 06:26:50;;;;;;;24.98;15.77;;;;;;;;;;5042515;28;20255;-69
2023/08/23 06:29:16;;;;;;;24.83;17.92;;;;;;;;;;5021845;28;20654;-67
2023/08/23 06:31:41;;;;;;;21.65;15.23;;;;;;;;;;5039578;28;20247;-67
2023/08/23 06:34:06;;;;;;;26.90;16.33;;;;;;;;;;5021351;28;20218;-68
2023/08/23 06:36:32;;;;;;;26.52;17.92;;;;;;;;;;5031406;28;20240;-67
2023/08/23 06:38:57;;;;;;;28.65;17.08;;;;;;;;;;5015702;28;20289;-68
2023/08/23 06:41:22;;;;;;;23.05;12.90;;;;;;;;;;5021590;28;20190;-68
2023/08/23 06:43:48;;;;;;;24.80;15.80;;;;;;;;;;5030728;28;20635;-68
2023/08/23 06:46:13;;;;;;;23.75;14.93;;;;;;;;;;5030781;28;20209;-68
2023/08/23 06:48:38;;;;;;;25.38;16.25;;;;;;;;;;5029653;28;20197;-67
2023/08/23 06:51:04;;;;;;;24.98;15.63;;;;;;;;;;5030831;28;20552;-67
2023/08/23 06:53:31;;;;;;;21.20;14.88;;;;;;;;;;5019518;28;20222;-68
2023/08/23 06:55:56;;;;;;;22.95;15.63;;;;;;;;;;5029123;28;20672;-67
2023/08/23 06:58:22;;;;;;;21.27;14.35;;;;;;;;;;5027769;28;20348;-67
2023/08/23 07:00:47;;;;;;;22.40;13.75;;;;;;;;;;5030575;28;20201;-67
2023/08/23 07:03:13;;;;;;;21.65;16.25;;;;;;;;;;5031121;28;20197;-68
2023/08/23 07:05:38;;;;;;;24.23;15.20;;;;;;;;;;5030504;28;20190;-68
2023/08/23 07:08:04;;;;;;;20.38;13.15;;;;;;;;;;5009084;28;20198;-67
2023/08/23 07:10:30;;;;;;;15.77;10.40;;;;;;;;;;5022831;28;20186;-67
2023/08/23 07:12:56;;;;;;;17.05;12.77;;;;;;;;;;5029239;28;20273;-67
2023/08/23 07:15:22;;;;;;;19.88;12.02;;;;;;;;;;5029123;28;20186;-67
2023/08/23 07:17:48;;;;;;;26.33;14.07;;;;;;;;;;5029401;28;20275;-67
2023/08/23 07:20:15;;;;;;;16.33;12.00;;;;;;;;;;5030398;28;20649;-66
2023/08/23 07:22:41;;;;;;;17.77;12.57;;;;;;;;;;5025600;28;20202;-67
2023/08/23 07:25:07;;;;;;;20.00;10.88;;;;;;;;;;5029487;28;20251;-67
2023/08/23 07:27:32;;;;;;;16.73;9.75;;;;;;;;;;5026541;28;20262;-66
2023/08/23 07:29:58;;;;;;;17.05;10.40;;;;;;;;;;5028106;28;20189;-68
2023/08/23 07:32:24;;;;;;;15.32;10.13;;;;;;;;;;5039915;28;20199;-67
2023/08/23 07:34:50;;;;;;;13.75;9.43;;;;;;;;;;5012501;28;20261;-68
2023/08/23 07:37:17;;;;;;;14.45;8.80;;;;;;;;;;5019247;28;20182;-68
2023/08/23 07:39:43;;;;;;;12.52;9.60;;;;;;;;;;5030809;28;20194;-67
2023/08/23 07:42:08;;;;;;;12.27;9.02;;;;;;;;;;5016520;28;20187;-68
2023/08/23 07:44:34;;;;;;;11.82;8.57;;;;;;;;;;5022454;28;20288;-67
2023/08/23 07:47:00;;;;;;;16.02;9.02;;;;;;;;;;5025087;28;20200;-68
2023/08/23 07:49:25;;;;;;;14.63;8.32;;;;;;;;;;5017253;28;20210;-67
2023/08/23 07:51:50;;;;;;;13.13;8.73;;;;;;;;;;5030443;28;20261;-68
2023/08/23 07:54:16;;;;;;;11.77;8.32;;;;;;;;;;5030572;28;20301;-67
2023/08/23 07:56:41;;;;;;;13.60;8.57;;;;;;;;;;5030597;28;20186;-66
2023/08/23 07:59:07;;;;;;;12.45;8.13;;;;;;;;;;5029679;28;20221;-67
2023/08/23 08:01:32;;;;;;;13.73;9.40;;;;;;;;;;5031459;28;20255;-67
2023/08/23 08:03:58;;;;;;;15.77;7.70;;;;;;;;;;5029713;28;20206;-67
2023/08/23 08:06:24;;;;;;;14.70;9.00;;;;;;;;;;5028846;28;20186;-67
2023/08/23 08:08:49;;;;;;;14.80;8.60;;;;;;;;;;5016602;28;20186;-66
2023/08/23 08:11:15;;;;;;;13.55;9.52;;;;;;;;;;5027192;28;20643;-67
2023/08/23 08:13:41;;;;;;;14.75;9.02;;;;;;;;;;5030094;28;20688;-67
2023/08/23 08:16:14;;;;;;;12.32;7.85;;;;;;;;;;5029964;28;20554;-67
2023/08/23 08:18:39;;;;;;;14.27;8.95;;;;;;;;;;5028915;28;20565;-67
2023/08/23 08:21:05;;;;;;;13.50;8.57;;;;;;;;;;5029365;28;20201;-67
2023/08/23 08:23:31;;;;;;;13.48;7.95;;;;;;;;;;5025495;28;20197;-68
2023/08/23 08:25:57;;;;;;;12.35;8.52;;;;;;;;;;5029636;28;20190;-68
2023/08/23 08:28:22;;;;;;;12.63;7.95;;;;;;;;;;5024073;28;20182;-68
2023/08/23 08:30:48;;;;;;;14.45;9.40;;;;;;;;;;5031439;28;20181;-67
2023/08/23 08:33:13;;;;;;;13.77;8.68;;;;;;;;;;5021498;28;20691;-68
2023/08/23 08:35:39;;;;;;;12.38;7.70;;;;;;;;;;5031624;28;20289;-67
2023/08/23 08:38:05;;;;;;;10.85;7.95;;;;;;;;;;5030606;28;20214;-68
2023/08/23 08:40:31;;;;;;;9.05;7.13;;;;;;;;;;5029133;28;20668;-68
2023/08/23 08:42:57;;;;;;;10.55;6.70;;;;;;;;;;5028918;28;20252;-68
2023/08/23 08:45:23;;;;;;;10.80;7.15;;;;;;;;;;5015184;28;20281;-68
2023/08/23 08:47:49;;;;;;;13.52;7.22;;;;;;;;;;5028635;28;20277;-68
2023/08/23 08:50:14;;;;;;;10.15;7.15;;;;;;;;;;5024899;28;20200;-68
2023/08/23 08:52:43;;;;;;;9.93;6.18;;;;;;;;;;5032802;28;20190;-68
2023/08/23 08:55:11;;;;;;;12.43;7.63;;;;;;;;;;5032445;28;20182;-68
2023/08/23 08:57:37;;;;;;;11.40;7.68;;;;;;;;;;5032581;28;20241;-68
2023/08/23 09:00:04;;;;;;;9.25;6.93;;;;;;;;;;5021375;28;20178;-67
2023/08/23 09:02:31;;;;;;;11.32;7.13;;;;;;;;;;5032113;28;20194;-68
2023/08/23 09:04:58;;;;;;;12.32;7.80;;;;;;;;;;5031827;28;20281;-68
2023/08/23 09:07:23;;;;;;;10.65;6.63;;;;;;;;;;5033089;28;20194;-67
2023/08/23 09:09:50;;;;;;;10.77;6.25;;;;;;;;;;5032490;28;20190;-68
2023/08/23 09:12:15;;;;;;;8.75;4.85;;;;;;;;;;5031506;28;20626;-68
2023/08/23 09:14:41;;;;;;;9.20;5.32;;;;;;;;;;5037046;28;20193;-68
2023/08/23 09:17:07;;;;;;;6.75;5.18;;;;;;;;;;5032801;28;20301;-67
2023/08/23 09:19:40;;;;;;;8.50;5.35;;;;;;;;;;5018202;28;20297;-68
2023/08/23 09:22:05;;;;;;;11.23;5.40;;;;;;;;;;5031338;28;20260;-67
2023/08/23 09:24:31;;;;;;;6.47;5.18;;;;;;;;;;5031908;28;20552;-68
2023/08/23 09:26:57;;;;;;;8.75;5.95;;;;;;;;;;5001204;28;20727;-67
2023/08/23 09:29:23;;;;;;;10.48;5.35;;;;;;;;;;5022660;28;20182;-68
2023/08/23 09:31:49;;;;;;;8.52;4.72;;;;;;;;;;5038873;28;20748;-67
2023/08/23 09:34:15;;;;;;;6.47;4.80;;;;;;;;;;5024474;28;20210;-66
2023/08/23 09:36:41;;;;;;;6.35;4.80;;;;;;;;;;5031334;28;20192;-67
2023/08/23 09:39:11;;;;;;;5.13;4.63;;;;;;;;;;5029696;28;20264;-67
2023/08/23 09:41:39;;;;;;;7.13;4.57;;;;;;;;;;5032999;28;20642;-67
2023/08/23 09:44:05;;;;;;;7.07;4.03;;;;;;;;;;5031687;28;20228;-67
2023/08/23 09:46:33;;;;;;;7.38;4.40;;;;;;;;;;5032778;28;20716;-66
2023/08/23 09:49:02;;;;;;;9.07;5.15;;;;;;;;;;5034299;28;20193;-68
2023/08/23 09:51:29;;;;;;;5.78;4.07;;;;;;;;;;5032699;28;20289;-67
2023/08/23 09:53:57;;;;;;;8.80;4.60;;;;;;;;;;5031877;28;20205;-67
2023/08/23 09:56:24;;;;;;;7.38;4.00;;;;;;;;;;5032233;28;20232;-68
2023/08/23 09:58:50;;;;;;;7.85;4.30;;;;;;;;;;5023956;28;20203;-67
2023/08/23 10:01:16;;;;;;;7.30;3.75;;;;;;;;;;5031360;28;20193;-67
2023/08/23 10:03:42;;;;;;;6.65;4.65;;;;;;;;;;5032098;28;20260;-67
2023/08/23 10:06:08;;;;;;;7.90;4.00;;;;;;;;;;5030698;28;20645;-67
2023/08/23 10:08:35;;;;;;;5.78;3.38;;;;;;;;;;5028053;28;20640;-67
2023/08/23 10:11:01;;;;;;;5.90;3.92;;;;;;;;;;5037261;28;20194;-68
2023/08/23 10:13:32;;;;;;;7.20;3.28;;;;;;;;;;5032208;28;20198;-67
2023/08/23 10:16:00;;;;;;;5.20;3.72;;;;;;;;;;5030582;28;20269;-67
2023/08/23 10:18:29;;;;;;;6.60;3.90;;;;;;;;;;5030130;28;20206;-67
2023/08/23 10:20:55;;;;;;;4.90;3.70;;;;;;;;;;5031882;28;20705;-67
2023/08/23 10:23:21;;;;;;;5.22;3.58;;;;;;;;;;5022052;28;20256;-67
2023/08/23 10:25:47;;;;;;;6.68;3.65;;;;;;;;;;5022289;28;20200;-67
2023/08/23 10:28:16;;;;;;;4.13;3.13;;;;;;;;;;5031881;28;20182;-68
2023/08/23 10:30:46;;;;;;;5.18;3.53;;;;;;;;;;5035400;28;20240;-67
2023/08/23 10:33:16;;;;;;;6.53;2.95;;;;;;;;;;5031081;28;20186;-67
2023/08/23 10:35:43;;;;;;;5.10;2.92;;;;;;;;;;5031017;28;20209;-66
2023/08/23 10:38:09;;;;;;;5.68;3.20;;;;;;;;;;5030027;28;20198;-68
2023/08/23 10:40:37;;;;;;;5.13;2.83;;;;;;;;;;5030880;28;20265;-66
2023/08/23 10:43:12;;;;;;;5.30;2.25;;;;;;;;;;5030986;28;20591;-66
2023/08/23 10:46:02;;;;;;;4.57;2.10;;;;;;;;;;5030135;28;20197;-67
2023/08/23 10:48:28;;;;;;;2.97;2.15;;;;;;;;;;5031090;28;20190;-67
2023/08/23 10:50:54;;;;;;;4.50;2.20;;;;;;;;;;5030464;28;20633;-68
2023/08/23 10:53:20;;;;;;;4.88;2.17;;;;;;;;;;5030789;28;20193;-68
2023/08/23 10:55:46;;;;;;;4.53;2.17;;;;;;;;;;5030648;28;20198;-68
2023/08/23 10:58:15;;;;;;;4.97;2.00;;;;;;;;;;5030654;28;20221;-67
2023/08/23 11:00:50;;;;;;;4.88;1.90;;;;;;;;;;5030346;28;20201;-68
2023/08/23 11:03:17;;;;;;;4.78;2.42;;;;;;;;;;5031376;28;20259;-68
2023/08/23 11:05:43;;;;;;;4.50;1.63;;;;;;;;;;5030607;28;20194;-67
2023/08/23 11:08:09;;;;;;;3.53;1.80;;;;;;;;;;5043020;28;20201;-68
2023/08/23 11:10:36;;;;;;;5.45;1.40;;;;;;;;;;5030200;28;20198;-68
2023/08/23 11:13:01;;;;;;;1.70;1.40;;;;;;;;;;5030781;28;20186;-67
2023/08/23 11:15:27;;;;;;;3.35;1.40;;;;;;;;;;5024371;28;20197;-67
2023/08/23 11:17:53;;;;;;;3.83;1.67;;;;;;;;;;5029630;28;20209;-68
2023/08/23 11:20:18;;;;;;;3.20;1.67;;;;;;;;;;5022173;28;20260;-68
2023/08/23 11:22:44;;;;;;;2.50;1.67;;;;;;;;;;5008678;28;20290;-68
2023/08/23 11:25:09;;;;;;;2.60;1.50;;;;;;;;;;5021366;28;20272;-67
2023/08/23 11:27:35;;;;;;;2.05;1.67;;;;;;;;;;5030469;28;20186;-67
2023/08/23 11:30:01;;;;;;;3.35;1.63;;;;;;;;;;5027925;28;20186;-67
2023/08/23 11:32:26;;;;;;;4.50;1.88;;;;;;;;;;5040627;28;20648;-68
2023/08/23 11:34:54;;;;;;;4.13;1.60;;;;;;;;;;5029150;28;20190;-66
2023/08/23 11:37:25;;;;;;;2.67;1.52;;;;;;;;;;5030194;28;20209;-69
2023/08/23 11:40:02;;;;;;;4.93;1.90;;;;;;;;;;5029791;28;20213;-67
2023/08/23 11:42:27;;;;;;;4.28;1.55;;;;;;;;;;5029843;28;20558;-67
2023/08/23 11:44:56;;;;;;;2.03;1.70;;;;;;;;;;5029412;28;20233;-67
2023/08/23 11:47:25;;;;;;;3.08;1.80;;;;;;;;;;5029367;28;20209;-67
2023/08/23 11:49:52;;;;;;;5.22;1.70;;;;;;;;;;5028109;28;20653;-67
2023/08/23 11:52:18;;;;;;;5.28;1.80;;;;;;;;;;5029091;28;20193;-68
2023/08/23 11:54:43;;;;;;;3.75;1.70;;;;;;;;;;5022129;28;20308;-68
2023/08/23 11:57:09;;;;;;;3.28;1.80;;;;;;;;;;5026538;28;20296;-67
2023/08/23 11:59:36;;;;;;;3.85;1.77;;;;;;;;;;5028824;28;20546;-67
2023/08/23 12:02:04;;;;;;;2.05;1.52;;;;;;;;;;5029671;28;20185;-67
2023/08/23 12:04:30;;;;;;;5.65;1.80;;;;;;;;;;5029457;28;20293;-67
2023/08/23 12:06:55;;;;;;;3.60;1.70;;;;;;;;;;5030465;28;20279;-68
2023/08/23 12:09:20;;;;;;;2.88;1.50;;;;;;;;;;5027049;28;20245;-69
2023/08/23 12:11:47;;;;;;;2.10;1.45;;;;;;;;;;5030149;28;20205;-68
2023/08/23 12:14:12;;;;;;;4.00;1.80;;;;;;;;;;5029783;28;20242;-66
2023/08/23 12:16:38;;;;;;;3.85;1.98;;;;;;;;;;5027510;28;20275;-67
2023/08/23 12:19:04;;;;;;;3.30;1.60;;;;;;;;;;5020211;28;20218;-67
2023/08/23 12:21:31;;;;;;;2.60;1.48;;;;;;;;;;5011509;28;20190;-68
2023/08/23 12:23:56;;;;;;;3.60;1.63;;;;;;;;;;5032667;28;20247;-68
2023/08/23 12:26:24;;;;;;;3.92;1.70;;;;;;;;;;5032428;28;20194;-68
2023/08/23 12:28:49;;;;;;;2.40;1.50;;;;;;;;;;5028276;28;20179;-68
2023/08/23 12:31:16;;;;;;;2.30;1.55;;;;;;;;;;5044056;28;20648;-66
2023/08/23 12:33:42;;;;;;;4.38;1.75;;;;;;;;;;5033196;28;20194;-67
2023/08/23 12:36:08;;;;;;;3.63;1.42;;;;;;;;;;5029848;28;20186;-67
2023/08/23 12:38:33;;;;;;;3.50;1.83;;;;;;;;;;5032319;28;20202;-69
2023/08/23 12:40:58;;;;;;;4.97;1.50;;;;;;;;;;5024325;28;20202;-69
2023/08/23 12:43:24;;;;;;;5.00;1.80;;;;;;;;;;5033377;28;20328;-67
2023/08/23 12:45:49;;;;;;;3.00;1.50;;;;;;;;;;5032574;28;20205;-67
2023/08/23 12:48:15;;;;;;;3.92;1.70;;;;;;;;;;5033847;28;20190;-67
2023/08/23 12:50:40;;;;;;;2.10;1.70;;;;;;;;;;5032908;28;20217;-68
2023/08/23 12:53:07;;;;;;;3.35;1.55;;;;;;;;;;5033010;28;20214;-67
2023/08/23 12:55:32;;;;;;;1.98;1.63;;;;;;;;;;5022381;28;20286;-67
2023/08/23 12:57:57;;;;;;;3.78;1.80;;;;;;;;;;5034060;28;20255;-68
2023/08/23 13:00:23;;;;;;;3.50;1.40;;;;;;;;;;5028149;28;20681;-68
2023/08/23 13:02:49;;;;;;;5.72;1.52;;;;;;;;;;5033192;28;20186;-68
2023/08/23 13:05:14;;;;;;;1.75;1.30;;;;;;;;;;5009977;28;20277;-68
2023/08/23 13:07:39;;;;;;;4.45;1.77;;;;;;;;;;5029365;28;20238;-68
2023/08/23 13:10:06;;;;;;;2.47;1.45;;;;;;;;;;5026788;28;20207;-68
2023/08/23 13:12:32;;;;;;;5.18;1.50;;;;;;;;;;5026963;28;20212;-67
2023/08/23 13:14:57;;;;;;;4.50;1.58;;;;;;;;;;5019194;28;20194;-68
2023/08/23 13:17:22;;;;;;;3.22;1.70;;;;;;;;;;5032645;28;20221;-68
2023/08/23 13:19:48;;;;;;;3.42;1.70;;;;;;;;;;5031704;28;20205;-67
2023/08/23 13:22:13;;;;;;;3.92;1.80;;;;;;;;;;5024296;28;20195;-67
2023/08/23 13:24:39;;;;;;;3.47;1.42;;;;;;;;;;5025854;28;20193;-67
2023/08/23 13:27:04;;;;;;;3.83;1.80;;;;;;;;;;5019235;28;20225;-67
2023/08/23 13:29:30;;;;;;;4.15;2.03;;;;;;;;;;5031852;28;20218;-68
2023/08/23 13:31:58;;;;;;;2.95;1.40;;;;;;;;;;5043073;28;20705;-67
2023/08/23 13:34:23;;;;;;;2.08;1.42;;;;;;;;;;5031110;28;20194;-68
2023/08/23 13:36:49;;;;;;;3.58;1.75;;;;;;;;;;5031264;28;20297;-67
2023/08/23 13:39:14;;;;;;;3.42;1.58;;;;;;;;;;5029087;28;20214;-67
2023/08/23 13:41:39;;;;;;;2.78;1.40;;;;;;;;;;5015666;28;20691;-68
2023/08/23 13:44:05;;;;;;;2.47;1.52;;;;;;;;;;5025696;28;20238;-69
2023/08/23 13:46:30;;;;;;;2.72;1.60;;;;;;;;;;5023262;28;20198;-69
2023/08/23 13:48:56;;;;;;;2.70;1.70;;;;;;;;;;5031611;28;20252;-69
2023/08/23 13:51:21;;;;;;;3.33;1.83;;;;;;;;;;5025506;28;20190;-69
2023/08/23 13:53:48;;;;;;;2.38;1.63;;;;;;;;;;5032184;28;20213;-68
2023/08/23 13:56:14;;;;;;;4.72;1.88;;;;;;;;;;5024559;28;20598;-69
2023/08/23 13:58:40;;;;;;;2.53;1.40;;;;;;;;;;5031947;28;20210;-69
2023/08/23 14:01:05;;;;;;;5.80;1.80;;;;;;;;;;5030355;28;20247;-70
2023/08/23 14:03:30;;;;;;;3.53;1.70;;;;;;;;;;5020540;28;20650;-69
2023/08/23 14:06:03;;;;;;;2.13;1.70;;;;;;;;;;5026241;28;20279;-66
2023/08/23 14:08:29;;;;;;;1.58;1.38;;;;;;;;;;5032302;28;20213;-67
2023/08/23 14:10:56;;;;;;;4.03;1.88;;;;;;;;;;5021038;28;20261;-67
2023/08/23 14:13:21;;;;;;;3.45;1.60;;;;;;;;;;5032758;28;20186;-67
2023/08/23 14:15:48;;;;;;;2.55;1.80;;;;;;;;;;5032173;28;20708;-67
2023/08/23 14:18:14;;;;;;;3.20;1.90;;;;;;;;;;5031297;28;20210;-67
2023/08/23 14:20:39;;;;;;;2.28;1.60;;;;;;;;;;5025805;28;20199;-67
2023/08/23 14:23:04;;;;;;;2.05;1.40;;;;;;;;;;5027084;28;20194;-67
2023/08/23 14:25:31;;;;;;;3.35;1.60;;;;;;;;;;5025781;28;20242;-68
2023/08/23 14:27:57;;;;;;;5.03;1.67;;;;;;;;;;5023681;28;20240;-67
2023/08/23 14:30:23;;;;;;;2.38;1.52;;;;;;;;;;5015052;28;20191;-67